createdAt,value
2016-07-21T00:00:06.644Z,82.65
2016-07-21T00:00:15.353Z,82.84
2016-07-21T00:00:24.078Z,83.13
2016-07-21T00:00:32.777Z,83.03
2016-07-21T00:00:41.463Z,83.03
2016-07-21T00:00:50.885Z,82.75
2016-07-21T00:00:59.608Z,83.22
2016-07-21T00:01:08.366Z,83.22
2016-07-21T00:01:17.068Z,83.03
2016-07-21T00:01:26.484Z,83.22
2016-07-21T00:01:35.218Z,83.22
2016-07-21T00:01:43.897Z,83.22
2016-07-21T00:01:52.596Z,83.32
2016-07-21T00:02:01.321Z,83.13
2016-07-21T00:02:10.014Z,83.7
2016-07-21T00:02:18.762Z,83.7
2016-07-21T00:02:27.462Z,83.61
2016-07-21T00:02:36.204Z,83.51
2016-07-21T00:02:44.881Z,83.61
2016-07-21T00:02:53.581Z,83.51
2016-07-21T00:03:02.297Z,83.7
2016-07-21T00:03:10.996Z,83.61
2016-07-21T00:03:19.694Z,83.61
2016-07-21T00:03:28.392Z,83.51
2016-07-21T00:03:37.132Z,83.41
2016-07-21T00:03:46.545Z,83.7
2016-07-21T00:03:55.242Z,83.61
2016-07-21T00:04:03.939Z,83.61
2016-07-21T00:04:12.599Z,83.7
2016-07-21T00:04:21.300Z,84.08
2016-07-21T00:04:30.065Z,83.98
2016-07-21T00:04:38.807Z,83.89
2016-07-21T00:04:47.557Z,83.7
2016-07-21T00:04:56.297Z,83.7
2016-07-21T00:05:05.018Z,83.7
2016-07-21T00:05:13.731Z,83.7
2016-07-21T00:05:22.434Z,83.7
2016-07-21T00:05:31.176Z,83.98
2016-07-21T00:05:39.866Z,84.27
2016-07-21T00:05:48.551Z,84.56
2016-07-21T00:05:57.256Z,84.46
2016-07-21T00:06:05.978Z,84.94
2016-07-21T00:06:14.692Z,85.03
2016-07-21T00:06:23.387Z,85.13
2016-07-21T00:06:32.100Z,85.41
2016-07-21T00:06:40.846Z,85.32
2016-07-21T00:06:49.543Z,85.89
2016-07-21T00:06:58.268Z,85.41
2016-07-21T00:07:06.945Z,85.6
2016-07-21T00:07:15.647Z,85.89
2016-07-21T00:07:24.343Z,86.18
2016-07-21T00:07:33.017Z,86.08
2016-07-21T00:07:41.720Z,86.18
2016-07-21T00:07:50.439Z,86.27
2016-07-21T00:07:59.163Z,86.27
2016-07-21T00:08:07.857Z,86.27
2016-07-21T00:08:16.582Z,86.36
2016-07-21T00:08:25.306Z,86.27
2016-07-21T00:08:33.989Z,86.36
2016-07-21T00:08:42.708Z,86.18
2016-07-21T00:08:51.386Z,86.46
2016-07-21T00:09:00.069Z,86.46
2016-07-21T00:09:08.823Z,86.46
2016-07-21T00:09:17.520Z,86.27
2016-07-21T00:09:26.250Z,86.08
2016-07-21T00:09:35.677Z,86.36
2016-07-21T00:09:44.370Z,86.27
2016-07-21T00:09:53.078Z,86.18
2016-07-21T00:10:01.800Z,86.46
2016-07-21T00:10:10.537Z,86.27
2016-07-21T00:10:19.237Z,86.46
2016-07-21T00:10:27.936Z,86.55
2016-07-21T00:10:36.661Z,86.08
2016-07-21T00:10:46.043Z,86.75
2016-07-21T00:10:54.723Z,86.61
2016-07-21T00:11:03.429Z,86.65
2016-07-21T00:11:12.135Z,87.23
2016-07-21T00:11:20.853Z,87.08
2016-07-21T00:11:29.570Z,87.32
2016-07-21T00:11:38.273Z,87.03
2016-07-21T00:11:46.991Z,86.84
2016-07-21T00:11:55.685Z,87.32
2016-07-21T00:12:04.417Z,87.46
2016-07-21T00:12:13.153Z,87.13
2016-07-21T00:12:21.853Z,87.18
2016-07-21T00:12:30.584Z,87.32
2016-07-21T00:12:39.321Z,87.32
2016-07-21T00:12:48.031Z,87.37
2016-07-21T00:12:56.762Z,87.27
2016-07-21T00:13:05.505Z,87.41
2016-07-21T00:13:14.218Z,87.79
2016-07-21T00:13:22.894Z,87.51
2016-07-21T00:13:31.619Z,87.7
2016-07-21T00:13:40.299Z,87.6
2016-07-21T00:13:49.003Z,87.79
2016-07-21T00:13:57.702Z,87.6
2016-07-21T00:14:06.414Z,87.6
2016-07-21T00:14:15.098Z,87.7
2016-07-21T00:14:23.799Z,87.7
2016-07-21T00:14:32.479Z,87.6
2016-07-21T00:14:41.221Z,87.7
2016-07-21T00:14:49.931Z,87.51
2016-07-21T00:14:58.646Z,87.51
2016-07-21T00:15:08.015Z,87.41
2016-07-21T00:15:16.702Z,87.6
2016-07-21T00:15:25.406Z,87.6
2016-07-21T00:15:34.118Z,87.6
2016-07-21T00:15:42.814Z,87.41
2016-07-21T00:15:51.542Z,87.41
2016-07-21T00:16:00.279Z,87.41
2016-07-21T00:16:08.983Z,87.79
2016-07-21T00:16:17.704Z,87.7
2016-07-21T00:16:26.419Z,87.7
2016-07-21T00:16:35.115Z,87.65
2016-07-21T00:16:43.822Z,87.7
2016-07-21T00:16:52.517Z,87.51
2016-07-21T00:17:01.211Z,87.6
2016-07-21T00:17:09.921Z,87.41
2016-07-21T00:17:18.669Z,87.89
2016-07-21T00:17:27.365Z,87.75
2016-07-21T00:17:36.098Z,87.85
2016-07-21T00:17:44.839Z,88.04
2016-07-21T00:17:53.527Z,87.94
2016-07-21T00:18:02.266Z,87.85
2016-07-21T00:18:10.931Z,87.85
2016-07-21T00:18:19.668Z,87.79
2016-07-21T00:18:28.350Z,88.27
2016-07-21T00:18:37.055Z,88.04
2016-07-21T00:18:45.796Z,88.32
2016-07-21T00:18:54.535Z,88.56
2016-07-21T00:19:03.247Z,88.56
2016-07-21T00:19:11.942Z,88.42
2016-07-21T00:19:20.666Z,88.46
2016-07-21T00:19:29.348Z,88.56
2016-07-21T00:19:38.058Z,88.51
2016-07-21T00:19:46.846Z,88.42
2016-07-21T00:19:56.205Z,88.23
2016-07-21T00:20:04.945Z,88.51
2016-07-21T00:20:13.664Z,88.6
2016-07-21T00:20:23.080Z,88.6
2016-07-21T00:20:31.822Z,88.99
2016-07-21T00:20:40.537Z,89.75
2016-07-21T00:20:49.240Z,89.18
2016-07-21T00:20:57.972Z,89.65
2016-07-21T00:21:06.684Z,89.75
2016-07-21T00:21:15.366Z,89.18
2016-07-21T00:21:24.110Z,88.99
2016-07-21T00:21:32.798Z,89.08
2016-07-21T00:21:41.495Z,89.27
2016-07-21T00:21:50.222Z,88.89
2016-07-21T00:21:58.955Z,89.08
2016-07-21T00:22:07.685Z,89.18
2016-07-21T00:22:16.401Z,89.18
2016-07-21T00:22:25.106Z,88.99
2016-07-21T00:22:33.834Z,88.99
2016-07-21T00:22:42.486Z,88.99
2016-07-21T00:22:51.169Z,89.27
2016-07-21T00:22:59.884Z,88.89
2016-07-21T00:23:08.574Z,88.79
2016-07-21T00:23:17.328Z,89.18
2016-07-21T00:23:26.067Z,89.18
2016-07-21T00:23:34.822Z,89.08
2016-07-21T00:23:43.579Z,89.56
2016-07-21T00:23:52.316Z,89.18
2016-07-21T00:24:01.018Z,89.56
2016-07-21T00:24:09.735Z,89.47
2016-07-21T00:24:18.446Z,89.47
2016-07-21T00:24:27.112Z,89.75
2016-07-21T00:24:35.840Z,89.56
2016-07-21T00:24:44.520Z,90.13
2016-07-21T00:24:53.262Z,89.84
2016-07-21T00:25:01.985Z,89.94
2016-07-21T00:25:10.685Z,89.94
2016-07-21T00:25:19.406Z,89.56
2016-07-21T00:25:28.124Z,89.56
2016-07-21T00:25:36.822Z,89.65
2016-07-21T00:25:45.557Z,89.65
2016-07-21T00:25:54.234Z,89.65
2016-07-21T00:26:02.941Z,89.65
2016-07-21T00:26:11.664Z,90.13
2016-07-21T00:26:20.368Z,89.75
2016-07-21T00:26:29.086Z,90.51
2016-07-21T00:26:37.803Z,90.13
2016-07-21T00:26:46.519Z,90.22
2016-07-21T00:26:55.219Z,90.42
2016-07-21T00:27:03.963Z,90.42
2016-07-21T00:27:12.648Z,90.89
2016-07-21T00:27:21.326Z,90.8
2016-07-21T00:27:30.024Z,90.61
2016-07-21T00:27:38.730Z,90.42
2016-07-21T00:27:47.457Z,90.42
2016-07-21T00:27:56.139Z,90.99
2016-07-21T00:28:04.836Z,90.89
2016-07-21T00:28:13.519Z,90.89
2016-07-21T00:28:22.224Z,90.89
2016-07-21T00:28:30.918Z,90.8
2016-07-21T00:28:39.639Z,90.61
2016-07-21T00:28:48.343Z,90.7
2016-07-21T00:28:57.722Z,90.61
2016-07-21T00:29:06.438Z,90.99
2016-07-21T00:29:15.179Z,91.27
2016-07-21T00:29:23.900Z,91.27
2016-07-21T00:29:32.627Z,91.46
2016-07-21T00:29:41.344Z,91.08
2016-07-21T00:29:50.049Z,91.08
2016-07-21T00:29:58.740Z,91.17
2016-07-21T00:30:07.430Z,91.37
2016-07-21T00:30:16.128Z,91.37
2016-07-21T00:30:24.858Z,91.65
2016-07-21T00:30:33.605Z,91.56
2016-07-21T00:30:42.319Z,91.65
2016-07-21T00:30:51.043Z,91.84
2016-07-21T00:30:59.747Z,91.94
2016-07-21T00:31:08.475Z,91.84
2016-07-21T00:31:17.149Z,91.84
2016-07-21T00:31:25.901Z,91.84
2016-07-21T00:31:34.598Z,91.84
2016-07-21T00:31:43.335Z,91.56
2016-07-21T00:31:52.036Z,91.84
2016-07-21T00:32:00.766Z,91.94
2016-07-21T00:32:09.485Z,92.03
2016-07-21T00:32:18.848Z,92.13
2016-07-21T00:32:27.578Z,92.22
2016-07-21T00:32:36.298Z,91.94
2016-07-21T00:32:45.050Z,91.84
2016-07-21T00:32:53.744Z,91.84
2016-07-21T00:33:02.471Z,91.75
2016-07-21T00:33:11.177Z,91.94
2016-07-21T00:33:19.945Z,91.84
2016-07-21T00:33:28.671Z,91.84
2016-07-21T00:33:37.335Z,92.13
2016-07-21T00:33:46.075Z,91.84
2016-07-21T00:33:54.784Z,91.56
2016-07-21T00:34:03.445Z,91.84
2016-07-21T00:34:12.151Z,91.65
2016-07-21T00:34:20.840Z,91.65
2016-07-21T00:34:29.548Z,91.56
2016-07-21T00:34:38.291Z,91.75
2016-07-21T00:34:46.996Z,91.75
2016-07-21T00:34:55.716Z,91.75
2016-07-21T00:35:04.398Z,91.84
2016-07-21T00:35:13.112Z,91.75
2016-07-21T00:35:21.831Z,91.94
2016-07-21T00:35:30.567Z,91.65
2016-07-21T00:35:39.259Z,91.46
2016-07-21T00:35:47.990Z,91.75
2016-07-21T00:35:56.706Z,91.56
2016-07-21T00:36:05.386Z,91.65
2016-07-21T00:36:14.044Z,91.56
2016-07-21T00:36:22.727Z,91.75
2016-07-21T00:36:31.534Z,91.37
2016-07-21T00:36:40.253Z,91.65
2016-07-21T00:36:48.933Z,91.65
2016-07-21T00:36:57.647Z,91.75
2016-07-21T00:37:06.387Z,91.84
2016-07-21T00:37:15.105Z,92.03
2016-07-21T00:37:23.801Z,92.13
2016-07-21T00:37:32.491Z,91.65
2016-07-21T00:37:41.221Z,91.94
2016-07-21T00:37:49.958Z,91.84
2016-07-21T00:37:58.657Z,91.94
2016-07-21T00:38:07.339Z,91.94
2016-07-21T00:38:16.016Z,91.65
2016-07-21T00:38:24.722Z,91.84
2016-07-21T00:38:33.421Z,92.03
2016-07-21T00:38:42.119Z,91.84
2016-07-21T00:38:50.828Z,91.94
2016-07-21T00:38:59.532Z,92.03
2016-07-21T00:39:08.250Z,92.03
2016-07-21T00:39:16.992Z,91.94
2016-07-21T00:39:25.701Z,92.32
2016-07-21T00:39:34.399Z,91.94
2016-07-21T00:39:43.120Z,92.32
2016-07-21T00:39:51.826Z,92.22
2016-07-21T00:40:00.521Z,92.13
2016-07-21T00:40:09.273Z,92.03
2016-07-21T00:40:17.985Z,92.22
2016-07-21T00:40:26.709Z,92.13
2016-07-21T00:40:35.407Z,92.13
2016-07-21T00:40:44.082Z,92.03
2016-07-21T00:40:52.761Z,92.13
2016-07-21T00:41:01.450Z,92.03
2016-07-21T00:41:10.193Z,92.03
2016-07-21T00:41:18.928Z,92.03
2016-07-21T00:41:27.670Z,92.03
2016-07-21T00:41:36.382Z,92.03
2016-07-21T00:41:45.103Z,92.03
2016-07-21T00:41:53.834Z,92.03
2016-07-21T00:42:02.550Z,92.03
2016-07-21T00:42:11.239Z,92.03
2016-07-21T00:42:19.951Z,92.03
2016-07-21T00:42:28.631Z,92.03
2016-07-21T00:42:37.330Z,92.32
2016-07-21T00:42:46.006Z,92.51
2016-07-21T00:42:55.372Z,92.6
2016-07-21T00:43:04.078Z,92.6
2016-07-21T00:43:12.777Z,92.41
2016-07-21T00:43:21.496Z,92.32
2016-07-21T00:43:30.223Z,92.41
2016-07-21T00:43:38.964Z,92.7
2016-07-21T00:43:47.698Z,92.51
2016-07-21T00:43:56.380Z,92.6
2016-07-21T00:44:05.082Z,92.41
2016-07-21T00:44:13.761Z,92.41
2016-07-21T00:44:22.439Z,92.79
2016-07-21T00:44:31.143Z,92.22
2016-07-21T00:44:39.844Z,92.13
2016-07-21T00:44:48.523Z,92.41
2016-07-21T00:44:57.220Z,92.51
2016-07-21T00:45:05.971Z,92.51
2016-07-21T00:45:14.691Z,92.51
2016-07-21T00:45:23.442Z,92.6
2016-07-21T00:45:32.177Z,92.6
2016-07-21T00:45:40.897Z,92.79
2016-07-21T00:45:49.610Z,92.7
2016-07-21T00:45:58.292Z,92.6
2016-07-21T00:46:07.010Z,92.7
2016-07-21T00:46:15.742Z,92.6
2016-07-21T00:46:24.438Z,92.41
2016-07-21T00:46:33.143Z,92.32
2016-07-21T00:46:41.899Z,92.41
2016-07-21T00:46:50.572Z,92.41
2016-07-21T00:46:59.319Z,92.79
2016-07-21T00:47:08.068Z,92.6
2016-07-21T00:47:16.765Z,92.7
2016-07-21T00:47:25.461Z,92.32
2016-07-21T00:47:34.208Z,92.51
2016-07-21T00:47:42.975Z,92.32
2016-07-21T00:47:51.696Z,92.41
2016-07-21T00:48:00.421Z,92.51
2016-07-21T00:48:09.128Z,92.51
2016-07-21T00:48:17.813Z,92.41
2016-07-21T00:48:27.178Z,92.7
2016-07-21T00:48:35.877Z,92.13
2016-07-21T00:48:44.559Z,92.7
2016-07-21T00:48:53.259Z,92.32
2016-07-21T00:49:02.020Z,92.51
2016-07-21T00:49:10.777Z,92.41
2016-07-21T00:49:19.538Z,92.6
2016-07-21T00:49:28.268Z,92.51
2016-07-21T00:49:36.984Z,92.51
2016-07-21T00:49:45.715Z,92.51
2016-07-21T00:49:54.443Z,92.51
2016-07-21T00:50:03.117Z,92.41
2016-07-21T00:50:11.845Z,92.51
2016-07-21T00:50:20.585Z,92.13
2016-07-21T00:50:29.337Z,92.13
2016-07-21T00:50:38.075Z,92.03
2016-07-21T00:50:46.731Z,92.13
2016-07-21T00:50:55.413Z,92.13
2016-07-21T00:51:04.079Z,92.13
2016-07-21T00:51:12.797Z,92.03
2016-07-21T00:51:21.492Z,92.03
2016-07-21T00:51:30.230Z,92.22
2016-07-21T00:51:38.925Z,92.13
2016-07-21T00:51:47.615Z,91.84
2016-07-21T00:51:56.336Z,92.41
2016-07-21T00:52:05.032Z,92.41
2016-07-21T00:52:13.741Z,92.89
2016-07-21T00:52:22.437Z,92.6
2016-07-21T00:52:31.101Z,92.41
2016-07-21T00:52:39.793Z,92.51
2016-07-21T00:52:48.526Z,92.51
2016-07-21T00:52:57.279Z,92.7
2016-07-21T00:53:05.983Z,92.41
2016-07-21T00:53:14.692Z,92.32
2016-07-21T00:53:23.416Z,92.6
2016-07-21T00:53:32.117Z,92.32
2016-07-21T00:53:40.849Z,92.51
2016-07-21T00:53:49.561Z,92.32
2016-07-21T00:53:58.224Z,92.51
2016-07-21T00:54:06.939Z,92.6
2016-07-21T00:54:15.616Z,92.32
2016-07-21T00:54:24.327Z,92.51
2016-07-21T00:54:33.033Z,92.41
2016-07-21T00:54:41.742Z,92.51
2016-07-21T00:54:50.454Z,92.13
2016-07-21T00:54:59.159Z,92.22
2016-07-21T00:55:07.835Z,92.22
2016-07-21T00:55:16.594Z,92.22
2016-07-21T00:55:25.325Z,92.51
2016-07-21T00:55:34.049Z,92.6
2016-07-21T00:55:42.746Z,92.13
2016-07-21T00:55:51.478Z,92.22
2016-07-21T00:56:00.190Z,92.7
2016-07-21T00:56:08.928Z,92.32
2016-07-21T00:56:17.631Z,92.22
2016-07-21T00:56:26.351Z,92.13
2016-07-21T00:56:35.037Z,92.51
2016-07-21T00:56:43.758Z,92.32
2016-07-21T00:56:52.491Z,92.51
2016-07-21T00:57:01.157Z,92.7
2016-07-21T00:57:09.895Z,92.7
2016-07-21T00:57:18.574Z,92.51
2016-07-21T00:57:27.288Z,92.41
2016-07-21T00:57:35.980Z,92.6
2016-07-21T00:57:44.672Z,92.41
2016-07-21T00:57:53.390Z,92.51
2016-07-21T00:58:02.093Z,92.41
2016-07-21T00:58:10.797Z,92.51
2016-07-21T00:58:19.499Z,92.51
2016-07-21T00:58:28.254Z,92.51
2016-07-21T00:58:36.978Z,92.41
2016-07-21T00:58:45.695Z,92.41
2016-07-21T00:58:54.419Z,92.6
2016-07-21T00:59:03.780Z,92.7
2016-07-21T00:59:12.504Z,92.6
2016-07-21T00:59:21.190Z,92.32
2016-07-21T00:59:29.900Z,92.79
2016-07-21T00:59:38.622Z,92.79
2016-07-21T00:59:47.360Z,92.89
2016-07-21T00:59:56.054Z,92.41
2016-07-21T01:00:04.789Z,92.7
2016-07-21T01:00:13.538Z,92.79
2016-07-21T01:00:22.264Z,92.41
2016-07-21T01:00:30.952Z,92.41
2016-07-21T01:00:39.662Z,92.51
2016-07-21T01:00:48.390Z,92.7
2016-07-21T01:00:57.129Z,92.6
2016-07-21T01:01:05.811Z,92.22
2016-07-21T01:01:14.563Z,92.6
2016-07-21T01:01:23.270Z,92.03
2016-07-21T01:01:31.957Z,92.03
2016-07-21T01:01:40.631Z,92.03
2016-07-21T01:01:49.308Z,92.03
2016-07-21T01:01:58.039Z,92.03
2016-07-21T01:02:06.735Z,92.13
2016-07-21T01:02:15.464Z,92.13
2016-07-21T01:02:24.149Z,92.22
2016-07-21T01:02:32.843Z,92.22
2016-07-21T01:02:42.257Z,92.22
2016-07-21T01:02:51.647Z,92.03
2016-07-21T01:03:00.369Z,92.13
2016-07-21T01:03:09.074Z,92.13
2016-07-21T01:03:17.763Z,92.51
2016-07-21T01:03:26.480Z,92.41
2016-07-21T01:03:35.206Z,92.51
2016-07-21T01:03:43.947Z,92.51
2016-07-21T01:03:52.662Z,92.32
2016-07-21T01:04:01.409Z,92.41
2016-07-21T01:04:10.124Z,92.51
2016-07-21T01:04:18.835Z,92.7
2016-07-21T01:04:27.546Z,92.7
2016-07-21T01:04:36.251Z,92.51
2016-07-21T01:04:45.656Z,92.51
2016-07-21T01:04:54.395Z,92.22
2016-07-21T01:05:03.085Z,92.89
2016-07-21T01:05:11.788Z,92.79
2016-07-21T01:05:20.485Z,93.27
2016-07-21T01:05:29.193Z,92.99
2016-07-21T01:05:37.881Z,92.99
2016-07-21T01:05:46.570Z,93.18
2016-07-21T01:05:55.305Z,93.46
2016-07-21T01:06:04.019Z,93.18
2016-07-21T01:06:13.413Z,93.08
2016-07-21T01:06:22.155Z,93.37
2016-07-21T01:06:30.903Z,93.27
2016-07-21T01:06:39.585Z,93.46
2016-07-21T01:06:48.304Z,93.65
2016-07-21T01:06:57.012Z,93.37
2016-07-21T01:07:05.699Z,93.65
2016-07-21T01:07:14.397Z,93.46
2016-07-21T01:07:23.113Z,93.55
2016-07-21T01:07:31.871Z,93.65
2016-07-21T01:07:40.592Z,93.55
2016-07-21T01:07:49.324Z,93.46
2016-07-21T01:07:58.034Z,93.65
2016-07-21T01:08:06.719Z,93.65
2016-07-21T01:08:15.428Z,93.46
2016-07-21T01:08:24.779Z,93.27
2016-07-21T01:08:33.474Z,93.08
2016-07-21T01:08:42.205Z,93.18
2016-07-21T01:08:50.887Z,93.37
2016-07-21T01:08:59.605Z,93.46
2016-07-21T01:09:08.330Z,93.18
2016-07-21T01:09:17.056Z,93.08
2016-07-21T01:09:25.730Z,93.27
2016-07-21T01:09:34.476Z,93.18
2016-07-21T01:09:43.220Z,93.18
2016-07-21T01:09:51.937Z,92.79
2016-07-21T01:10:00.660Z,92.79
2016-07-21T01:10:09.363Z,92.89
2016-07-21T01:10:18.091Z,92.89
2016-07-21T01:10:26.811Z,92.79
2016-07-21T01:10:35.551Z,92.7
2016-07-21T01:10:44.286Z,92.32
2016-07-21T01:10:52.997Z,92.13
2016-07-21T01:11:01.717Z,92.13
2016-07-21T01:11:11.122Z,92.22
2016-07-21T01:11:19.847Z,92.22
2016-07-21T01:11:28.561Z,92.03
2016-07-21T01:11:37.270Z,92.51
2016-07-21T01:11:45.996Z,92.32
2016-07-21T01:11:54.718Z,92.7
2016-07-21T01:12:03.396Z,92.7
2016-07-21T01:12:12.107Z,92.79
2016-07-21T01:12:20.831Z,92.51
2016-07-21T01:12:29.535Z,92.7
2016-07-21T01:12:38.265Z,92.7
2016-07-21T01:12:47.032Z,92.79
2016-07-21T01:12:55.720Z,92.51
2016-07-21T01:13:04.429Z,92.51
2016-07-21T01:13:13.141Z,92.32
2016-07-21T01:13:21.891Z,92.41
2016-07-21T01:13:30.615Z,92.41
2016-07-21T01:13:39.352Z,92.51
2016-07-21T01:13:48.041Z,92.79
2016-07-21T01:13:56.739Z,92.6
2016-07-21T01:14:05.442Z,92.6
2016-07-21T01:14:14.161Z,92.51
2016-07-21T01:14:22.870Z,92.89
2016-07-21T01:14:31.547Z,92.79
2016-07-21T01:14:40.247Z,92.51
2016-07-21T01:14:48.972Z,92.51
2016-07-21T01:14:57.700Z,92.7
2016-07-21T01:15:06.457Z,92.51
2016-07-21T01:15:15.147Z,92.41
2016-07-21T01:15:23.847Z,92.41
2016-07-21T01:15:32.565Z,92.22
2016-07-21T01:15:41.254Z,92.51
2016-07-21T01:15:49.928Z,92.51
2016-07-21T01:15:58.594Z,92.51
2016-07-21T01:16:07.356Z,92.51
2016-07-21T01:16:16.034Z,92.51
2016-07-21T01:16:24.767Z,92.7
2016-07-21T01:16:33.460Z,92.51
2016-07-21T01:16:42.136Z,92.7
2016-07-21T01:16:50.841Z,92.79
2016-07-21T01:16:59.535Z,92.6
2016-07-21T01:17:08.267Z,92.41
2016-07-21T01:17:16.990Z,92.51
2016-07-21T01:17:25.711Z,92.13
2016-07-21T01:17:34.416Z,92.6
2016-07-21T01:17:43.148Z,92.79
2016-07-21T01:17:51.812Z,92.6
2016-07-21T01:18:00.533Z,92.6
2016-07-21T01:18:09.200Z,93.46
2016-07-21T01:18:17.918Z,93.18
2016-07-21T01:18:26.641Z,93.27
2016-07-21T01:18:35.368Z,93.18
2016-07-21T01:18:44.113Z,93.37
2016-07-21T01:18:52.805Z,93.08
2016-07-21T01:19:01.523Z,93.08
2016-07-21T01:19:10.224Z,93.27
2016-07-21T01:19:18.923Z,93.08
2016-07-21T01:19:27.670Z,93.27
2016-07-21T01:19:36.360Z,93.55
2016-07-21T01:19:45.810Z,93.46
2016-07-21T01:19:54.504Z,93.08
2016-07-21T01:20:03.238Z,93.18
2016-07-21T01:20:12.005Z,93.27
2016-07-21T01:20:20.752Z,93.08
2016-07-21T01:20:29.429Z,93.46
2016-07-21T01:20:38.141Z,93.08
2016-07-21T01:20:46.841Z,92.99
2016-07-21T01:20:55.519Z,93.08
2016-07-21T01:21:04.209Z,93.46
2016-07-21T01:21:12.929Z,93.18
2016-07-21T01:21:21.611Z,92.99
2016-07-21T01:21:30.321Z,93.18
2016-07-21T01:21:39.038Z,93.08
2016-07-21T01:21:47.728Z,92.99
2016-07-21T01:21:56.409Z,93.18
2016-07-21T01:22:05.151Z,93.55
2016-07-21T01:22:13.863Z,92.6
2016-07-21T01:22:22.566Z,92.79
2016-07-21T01:22:31.310Z,92.22
2016-07-21T01:22:40.731Z,92.41
2016-07-21T01:22:49.418Z,92.36
2016-07-21T01:22:58.133Z,92.65
2016-07-21T01:23:06.810Z,92.41
2016-07-21T01:23:15.515Z,92.6
2016-07-21T01:23:24.232Z,92.74
2016-07-21T01:23:32.920Z,92.94
2016-07-21T01:23:41.616Z,92.46
2016-07-21T01:23:50.355Z,92.65
2016-07-21T01:23:59.081Z,92.55
2016-07-21T01:24:07.823Z,92.55
2016-07-21T01:24:16.590Z,92.46
2016-07-21T01:24:25.301Z,92.36
2016-07-21T01:24:34.020Z,91.99
2016-07-21T01:24:42.724Z,92.08
2016-07-21T01:24:51.398Z,92.18
2016-07-21T01:25:00.142Z,92.08
2016-07-21T01:25:08.866Z,92.08
2016-07-21T01:25:17.528Z,91.89
2016-07-21T01:25:26.197Z,92.08
2016-07-21T01:25:34.916Z,91.89
2016-07-21T01:25:43.594Z,91.99
2016-07-21T01:25:52.312Z,91.99
2016-07-21T01:26:00.996Z,91.89
2016-07-21T01:26:09.714Z,91.89
2016-07-21T01:26:18.433Z,91.79
2016-07-21T01:26:27.834Z,91.99
2016-07-21T01:26:36.540Z,91.7
2016-07-21T01:26:45.230Z,91.7
2016-07-21T01:26:53.968Z,91.99
2016-07-21T01:27:02.678Z,91.89
2016-07-21T01:27:11.434Z,91.89
2016-07-21T01:27:20.858Z,91.99
2016-07-21T01:27:29.574Z,91.99
2016-07-21T01:27:38.314Z,91.99
2016-07-21T01:27:47.048Z,91.51
2016-07-21T01:27:55.778Z,91.6
2016-07-21T01:28:04.538Z,91.6
2016-07-21T01:28:13.240Z,91.6
2016-07-21T01:28:21.981Z,91.41
2016-07-21T01:28:30.690Z,91.7
2016-07-21T01:28:39.370Z,91.7
2016-07-21T01:28:48.076Z,91.7
2016-07-21T01:28:56.803Z,91.7
2016-07-21T01:29:05.519Z,91.99
2016-07-21T01:29:14.308Z,91.79
2016-07-21T01:29:23.019Z,91.89
2016-07-21T01:29:31.784Z,91.6
2016-07-21T01:29:40.478Z,92.08
2016-07-21T01:29:49.156Z,91.51
2016-07-21T01:29:57.860Z,91.89
2016-07-21T01:30:06.592Z,91.6
2016-07-21T01:30:15.299Z,91.41
2016-07-21T01:30:24.022Z,91.7
2016-07-21T01:30:32.746Z,91.41
2016-07-21T01:30:41.466Z,91.41
2016-07-21T01:30:50.150Z,91.51
2016-07-21T01:30:59.566Z,91.41
2016-07-21T01:31:08.323Z,91.41
2016-07-21T01:31:17.009Z,91.41
2016-07-21T01:31:25.698Z,91.13
2016-07-21T01:31:34.374Z,91.22
2016-07-21T01:31:43.079Z,91.13
2016-07-21T01:31:51.826Z,91.13
2016-07-21T01:32:00.546Z,90.84
2016-07-21T01:32:09.241Z,91.03
2016-07-21T01:32:17.951Z,90.84
2016-07-21T01:32:26.652Z,91.03
2016-07-21T01:32:35.349Z,90.75
2016-07-21T01:32:44.049Z,91.13
2016-07-21T01:32:52.752Z,90.56
2016-07-21T01:33:01.438Z,90.46
2016-07-21T01:33:10.125Z,90.75
2016-07-21T01:33:18.811Z,90.65
2016-07-21T01:33:28.217Z,90.75
2016-07-21T01:33:36.944Z,90.75
2016-07-21T01:33:46.354Z,90.94
2016-07-21T01:33:55.058Z,90.75
2016-07-21T01:34:03.759Z,90.84
2016-07-21T01:34:12.480Z,90.75
2016-07-21T01:34:21.225Z,90.75
2016-07-21T01:34:29.950Z,90.65
2016-07-21T01:34:38.672Z,90.65
2016-07-21T01:34:47.392Z,90.65
2016-07-21T01:34:56.061Z,90.65
2016-07-21T01:35:04.789Z,90.65
2016-07-21T01:35:13.516Z,90.94
2016-07-21T01:35:22.271Z,90.46
2016-07-21T01:35:30.999Z,90.46
2016-07-21T01:35:39.720Z,90.75
2016-07-21T01:35:48.420Z,90.56
2016-07-21T01:35:57.171Z,90.36
2016-07-21T01:36:05.911Z,90.56
2016-07-21T01:36:15.296Z,90.46
2016-07-21T01:36:24.001Z,90.46
2016-07-21T01:36:32.716Z,90.56
2016-07-21T01:36:41.436Z,90.36
2016-07-21T01:36:50.132Z,91.03
2016-07-21T01:36:58.883Z,91.22
2016-07-21T01:37:07.622Z,91.22
2016-07-21T01:37:16.315Z,90.56
2016-07-21T01:37:25.055Z,90.42
2016-07-21T01:37:33.749Z,90.75
2016-07-21T01:37:42.434Z,90.94
2016-07-21T01:37:51.135Z,90.46
2016-07-21T01:37:59.863Z,90.94
2016-07-21T01:38:08.577Z,90.56
2016-07-21T01:38:17.307Z,90.65
2016-07-21T01:38:26.003Z,90.56
2016-07-21T01:38:34.661Z,90.08
2016-07-21T01:38:43.404Z,90.27
2016-07-21T01:38:52.104Z,89.98
2016-07-21T01:39:01.478Z,90.36
2016-07-21T01:39:10.200Z,90.27
2016-07-21T01:39:18.883Z,90.36
2016-07-21T01:39:27.583Z,90.27
2016-07-21T01:39:36.328Z,90.36
2016-07-21T01:39:45.031Z,89.79
2016-07-21T01:39:53.694Z,89.89
2016-07-21T01:40:03.075Z,89.89
2016-07-21T01:40:11.797Z,90.08
2016-07-21T01:40:20.511Z,89.41
2016-07-21T01:40:29.216Z,89.89
2016-07-21T01:40:38.614Z,89.7
2016-07-21T01:40:47.334Z,89.41
2016-07-21T01:40:55.995Z,89.41
2016-07-21T01:41:04.722Z,89.03
2016-07-21T01:41:13.477Z,89.32
2016-07-21T01:41:22.164Z,88.56
2016-07-21T01:41:30.887Z,88.37
2016-07-21T01:41:39.633Z,88.65
2016-07-21T01:41:48.372Z,88.56
2016-07-21T01:41:57.053Z,88.65
2016-07-21T01:42:05.779Z,88.65
2016-07-21T01:42:14.438Z,88.56
2016-07-21T01:42:23.124Z,88.27
2016-07-21T01:42:31.860Z,88.56
2016-07-21T01:42:40.595Z,88.37
2016-07-21T01:42:49.313Z,88.18
2016-07-21T01:42:58.023Z,87.98
2016-07-21T01:43:06.758Z,87.7
2016-07-21T01:43:15.467Z,87.98
2016-07-21T01:43:24.195Z,87.98
2016-07-21T01:43:32.878Z,87.98
2016-07-21T01:43:41.558Z,87.98
2016-07-21T01:43:50.247Z,88.18
2016-07-21T01:43:58.942Z,87.89
2016-07-21T01:44:08.353Z,87.7
2016-07-21T01:44:17.058Z,87.79
2016-07-21T01:44:25.767Z,87.7
2016-07-21T01:44:34.518Z,87.7
2016-07-21T01:44:43.235Z,87.79
2016-07-21T01:44:51.941Z,88.18
2016-07-21T01:45:00.660Z,88.18
2016-07-21T01:45:09.395Z,88.37
2016-07-21T01:45:18.108Z,87.79
2016-07-21T01:45:26.814Z,87.7
2016-07-21T01:45:35.560Z,87.79
2016-07-21T01:45:44.283Z,87.41
2016-07-21T01:45:52.967Z,87.41
2016-07-21T01:46:01.650Z,87.51
2016-07-21T01:46:11.070Z,87.6
2016-07-21T01:46:19.747Z,87.51
2016-07-21T01:46:28.486Z,87.41
2016-07-21T01:46:37.195Z,87.32
2016-07-21T01:46:45.953Z,87.32
2016-07-21T01:46:54.635Z,87.32
2016-07-21T01:47:03.361Z,87.41
2016-07-21T01:47:12.068Z,87.41
2016-07-21T01:47:20.744Z,86.94
2016-07-21T01:47:29.414Z,87.13
2016-07-21T01:47:38.159Z,87.03
2016-07-21T01:47:46.833Z,87.32
2016-07-21T01:47:55.545Z,87.03
2016-07-21T01:48:04.219Z,86.84
2016-07-21T01:48:12.918Z,86.75
2016-07-21T01:48:21.639Z,86.18
2016-07-21T01:48:30.376Z,86.27
2016-07-21T01:48:39.061Z,86.46
2016-07-21T01:48:47.772Z,86.55
2016-07-21T01:48:56.495Z,86.18
2016-07-21T01:49:05.238Z,86.08
2016-07-21T01:49:13.967Z,86.36
2016-07-21T01:49:22.706Z,86.18
2016-07-21T01:49:31.396Z,86.55
2016-07-21T01:49:40.081Z,86.46
2016-07-21T01:49:48.792Z,85.8
2016-07-21T01:49:57.512Z,86.46
2016-07-21T01:50:06.194Z,85.7
2016-07-21T01:50:14.925Z,85.8
2016-07-21T01:50:23.647Z,85.7
2016-07-21T01:50:33.021Z,85.8
2016-07-21T01:50:41.675Z,85.8
2016-07-21T01:50:50.362Z,85.89
2016-07-21T01:50:59.087Z,85.99
2016-07-21T01:51:07.830Z,85.89
2016-07-21T01:51:16.519Z,85.89
2016-07-21T01:51:25.240Z,85.7
2016-07-21T01:51:33.988Z,85.7
2016-07-21T01:51:42.703Z,85.6
2016-07-21T01:51:51.398Z,86.08
2016-07-21T01:52:00.123Z,86.08
2016-07-21T01:52:08.788Z,85.89
2016-07-21T01:52:17.554Z,85.8
2016-07-21T01:52:26.315Z,85.7
2016-07-21T01:52:35.031Z,85.8
2016-07-21T01:52:43.727Z,85.99
2016-07-21T01:52:52.491Z,86.08
2016-07-21T01:53:01.210Z,85.99
2016-07-21T01:53:09.910Z,85.7